»·PEaware :: N144PW CYLW-CYVR

N144PW :: CYLW-CYVR

FLIGHT INFORMATION

Flight Status: Arrived
Operator: Privately registered:
United States
More flights under this callsign
Pilot: Stacy K. (11621)
Aircraft: CESSNA 404 TITAN
(C404)
More flights by this aircraft type
Origin: CYLW Kelowna
Canada
Destination: CYVR Vancouver Intl
Canada
More flights between these airports :: More routes between these airports
Route: VFR
File this flight plan on PilotEdge
Remarks:
Altitude:
(Current/Filed)
VFR
Speed:
(Current/Filed)
180kts
Departed: 06-Aug-17 01:19 PM
Arrived: 06-Aug-17 02:09 PM
Distance/Time
Traveled:
154nm/0:50
Distance/Time
To Go:
Arrived

Flight Plot

Page will automatically refresh every two minutes.

Flight plan parsing failed; only flown route is shown


Map Options




Map Legend


Flown Route
Filed Route
Departure Airport
Arrival Airport
Navaid (VOR, NDB)
Fix

Horizontal Profiles

Position Reports

Time Latitude Longitude Heading Altitude Ground
Speed
06-Aug-17 13:11 49.955928 -119.380667 5 1379ft 0kts
06-Aug-17 13:12 49.955928 -119.380667 5 1379ft 0kts
06-Aug-17 13:13 49.955928 -119.380667 5 1379ft 0kts
06-Aug-17 13:14 49.955928 -119.380667 5 1379ft 0kts
06-Aug-17 13:15 49.955928 -119.380667 5 1379ft 0kts
06-Aug-17 13:16 49.955852 -119.379965 126 1379ft 0kts
06-Aug-17 13:17 49.953430 -119.379675 179 1379ft 13kts
06-Aug-17 13:18 49.951802 -119.379541 175 1379ft 2kts
06-Aug-17 13:19 49.950039 -119.379331 175 1379ft 0kts
06-Aug-17 13:20 49.947823 -119.377657 122 1379ft 0kts
06-Aug-17 13:21 49.947547 -119.376685 21 1379ft 9kts
06-Aug-17 13:22 49.968618 -119.379907 349 2024ft 102kts
06-Aug-17 13:23 50.002264 -119.395497 341 3160ft 154kts
06-Aug-17 13:24 50.000535 -119.439536 185 4205ft 171kts
06-Aug-17 13:25 49.953784 -119.453247 205 5237ft 179kts
06-Aug-17 13:26 49.908053 -119.489138 208 6261ft 190kts
06-Aug-17 13:27 49.866175 -119.540810 224 7270ft 196kts
06-Aug-17 13:28 49.828228 -119.603378 227 8269ft 201kts
06-Aug-17 13:29 49.791258 -119.667298 228 9240ft 194kts
06-Aug-17 13:30 49.755173 -119.730317 228 10244ft 199kts
06-Aug-17 13:31 49.718127 -119.794841 229 11247ft 202kts
06-Aug-17 13:32 49.680224 -119.860669 229 12273ft 211kts
06-Aug-17 13:33 49.639355 -119.931559 229 12515ft 232kts
06-Aug-17 13:34 49.597094 -120.004649 229 12512ft 225kts
06-Aug-17 13:35 49.555298 -120.076695 229 12520ft 227kts
06-Aug-17 13:36 49.513192 -120.149052 229 12506ft 231kts
06-Aug-17 13:37 49.470885 -120.221527 229 12505ft 225kts
06-Aug-17 13:38 49.429014 -120.293093 229 12509ft 224kts
06-Aug-17 13:39 49.389439 -120.366191 248 12512ft 222kts
06-Aug-17 13:40 49.377481 -120.459184 264 12517ft 225kts
06-Aug-17 13:41 49.370790 -120.553882 265 12514ft 221kts
06-Aug-17 13:42 49.364726 -120.647664 265 12514ft 222kts
06-Aug-17 13:43 49.358680 -120.742129 265 12510ft 221kts
06-Aug-17 13:44 49.352618 -120.836096 265 12505ft 221kts
06-Aug-17 13:45 49.346486 -120.930052 264 12498ft 221kts
06-Aug-17 13:46 49.340375 -121.022524 264 12490ft 221kts
06-Aug-17 13:47 49.334093 -121.116466 264 12482ft 222kts
06-Aug-17 13:48 49.327721 -121.210588 264 12475ft 222kts
06-Aug-17 13:49 49.321244 -121.305112 264 12471ft 222kts
06-Aug-17 13:50 49.314702 -121.399455 264 12468ft 222kts
06-Aug-17 13:51 49.308092 -121.493651 264 12467ft 222kts
06-Aug-17 13:52 49.301379 -121.588223 263 12466ft 223kts
06-Aug-17 13:53 49.294588 -121.682744 263 12469ft 223kts
06-Aug-17 13:54 49.287693 -121.777617 263 12472ft 223kts
06-Aug-17 13:55 49.280752 -121.872063 263 12477ft 223kts
06-Aug-17 13:56 49.273735 -121.966502 263 12483ft 223kts
06-Aug-17 13:57 49.266596 -122.061460 263 12490ft 225kts
06-Aug-17 13:58 49.259385 -122.156362 263 12488ft 224kts
06-Aug-17 13:59 49.240866 -122.245821 243 12053ft 221kts
06-Aug-17 14:00 49.214937 -122.329765 245 11050ft 216kts
06-Aug-17 14:01 49.191708 -122.414133 248 10051ft 214kts
06-Aug-17 14:02 49.171319 -122.499860 251 9073ft 218kts
06-Aug-17 14:03 49.154003 -122.588241 254 8073ft 218kts
06-Aug-17 14:04 49.148304 -122.678697 273 7080ft 216kts
06-Aug-17 14:05 49.155549 -122.767925 279 6062ft 208kts
06-Aug-17 14:06 49.165208 -122.854700 279 5077ft 206kts
06-Aug-17 14:07 49.174467 -122.936291 279 4073ft 179kts
06-Aug-17 14:08 49.181626 -123.006529 279 2710ft 161kts
06-Aug-17 14:09 49.190277 -123.072952 280 1086ft 148kts
06-Aug-17 14:10 49.196685 -123.126707 277 494ft 113kts
06-Aug-17 14:11 49.201391 -123.168406 276 28ft 85kts
06-Aug-17 14:12 49.202984 -123.185459 245 18ft 16kts
06-Aug-17 14:13 49.202356 -123.187624 246 18ft 9kts
06-Aug-17 14:14 49.200959 -123.187617 181 18ft 12kts
06-Aug-17 14:15 49.198644 -123.185391 189 18ft 12kts
06-Aug-17 14:16 49.195564 -123.186272 192 18ft 14kts
06-Aug-17 14:17 49.192340 -123.187239 191 18ft 10kts
06-Aug-17 14:18 49.189702 -123.184575 139 18ft 13kts
06-Aug-17 14:19 49.188792 -123.178488 98 18ft 16kts
06-Aug-17 14:20 49.187982 -123.171362 96 18ft 14kts
06-Aug-17 14:21 49.187304 -123.165421 100 18ft 15kts
06-Aug-17 14:22 49.184446 -123.162339 189 18ft 19kts
06-Aug-17 14:23 49.182266 -123.164992 273 18ft 12kts
06-Aug-17 14:24 49.181480 -123.164465 93 18ft 3kts

Navigation Log

Ident Type
Flight plan parsing failed, navigation log unavailable